Time;durP1;ratioP1;P1;durP2;ratioP2;P2;SDS_P1;SDS_P2;PMS_P1;PMS_P2;Temp;Humidity;BMP_temperature;BMP_pressure;BME280_temperature;BME280_humidity;BME280_pressure;Samples;Min_cycle;Max_cycle;Signal;HPM_P1;HPM_P2
2024/01/11 00:02:08;;;;;;;58.07;25.37;;;-7.70;1.00;;;;;;5045450;28;20214;-79
2024/01/11 00:04:36;;;;;;;55.37;24.83;;;-7.90;1.00;;;;;;5050862;28;20230;-79
2024/01/11 00:07:03;;;;;;;61.37;26.50;;;-7.80;1.00;;;;;;5039161;28;20713;-79
2024/01/11 00:09:30;;;;;;;56.80;25.00;;;-7.90;1.00;;;;;;5034058;28;20207;-79
2024/01/11 00:11:57;;;;;;;57.33;30.50;;;-7.80;1.00;;;;;;5041669;28;20203;-78
2024/01/11 00:14:24;;;;;;;58.50;29.50;;;-7.80;1.00;;;;;;5029733;28;20606;-76
2024/01/11 00:16:52;;;;;;;66.10;32.97;;;-7.90;1.00;;;;;;5032768;28;20227;-76
2024/01/11 00:19:19;;;;;;;60.80;27.93;;;-8.20;99.90;;;;;;5034648;28;20599;-76
2024/01/11 00:21:48;;;;;;;65.50;28.87;;;-8.30;99.90;;;;;;5028447;28;20215;-76
2024/01/11 00:24:14;;;;;;;63.33;28.87;;;-8.20;1.00;;;;;;5029656;28;20282;-76
2024/01/11 00:26:42;;;;;;;58.27;28.10;;;-8.40;99.90;;;;;;5034089;28;20210;-78
2024/01/11 00:29:08;;;;;;;64.43;28.33;;;-8.40;99.90;;;;;;5030552;28;20204;-78
2024/01/11 00:31:36;;;;;;;65.40;28.90;;;-8.30;1.00;;;;;;5033484;28;20215;-79
2024/01/11 00:34:02;;;;;;;62.00;27.13;;;-8.30;1.00;;;;;;5039403;28;20226;-78
2024/01/11 00:36:29;;;;;;;64.50;33.57;;;-8.30;1.00;;;;;;5038141;28;20210;-79
2024/01/11 00:38:57;;;;;;;60.53;27.47;;;-8.30;1.00;;;;;;5036504;28;20207;-76
2024/01/11 00:41:24;;;;;;;69.83;34.23;;;-8.30;1.00;;;;;;5035060;28;20212;-78
2024/01/11 00:43:51;;;;;;;69.13;28.87;;;-8.20;1.00;;;;;;5035836;28;20235;-78
2024/01/11 00:46:18;;;;;;;58.37;27.87;;;-8.20;1.00;;;;;;5035593;28;20210;-79
2024/01/11 00:48:44;;;;;;;59.57;27.97;;;-8.20;1.00;;;;;;5033194;28;20203;-79
2024/01/11 00:51:11;;;;;;;67.47;29.10;;;-8.10;1.00;;;;;;5035470;28;20204;-79
2024/01/11 00:53:38;;;;;;;61.73;27.93;;;-8.00;1.00;;;;;;5034565;28;20219;-79
2024/01/11 00:56:06;;;;;;;61.10;29.83;;;-8.10;1.00;;;;;;5035579;28;20204;-79
2024/01/11 00:58:33;;;;;;;73.83;30.07;;;-8.00;1.00;;;;;;5036986;28;20215;-79
2024/01/11 01:01:00;;;;;;;66.80;30.47;;;-8.00;1.00;;;;;;5038691;28;20204;-78
2024/01/11 01:03:26;;;;;;;71.00;30.87;;;-8.10;1.00;;;;;;5036626;28;20231;-78
2024/01/11 01:05:53;;;;;;;57.63;29.40;;;-8.00;1.00;;;;;;5040640;28;20207;-78
2024/01/11 01:08:20;;;;;;;67.57;29.43;;;-7.90;1.00;;;;;;5040639;28;20199;-76
2024/01/11 01:10:47;;;;;;;70.23;32.67;;;-8.10;99.90;;;;;;5036424;28;20195;-78
2024/01/11 01:13:15;;;;;;;68.13;30.60;;;-8.10;1.00;;;;;;5038869;28;20233;-76
2024/01/11 01:15:42;;;;;;;66.43;33.03;;;-8.30;99.90;;;;;;5039399;28;20684;-76
2024/01/11 01:18:09;;;;;;;69.57;32.17;;;-8.40;99.90;;;;;;5029656;28;20319;-77
2024/01/11 01:20:35;;;;;;;65.60;31.63;;;-8.20;1.00;;;;;;5030176;28;20204;-79
2024/01/11 01:23:02;;;;;;;71.63;36.83;;;-8.10;1.00;;;;;;5029411;28;20210;-79
2024/01/11 01:25:29;;;;;;;69.67;32.03;;;-8.20;1.00;;;;;;5032477;28;20643;-78
2024/01/11 01:27:56;;;;;;;73.87;35.63;;;-8.20;1.00;;;;;;5040313;28;20230;-78
2024/01/11 01:30:24;;;;;;;80.20;38.40;;;-8.10;1.00;;;;;;5036889;28;20214;-79
2024/01/11 01:32:51;;;;;;;64.63;33.70;;;-8.00;1.00;;;;;;5037001;28;20647;-78
2024/01/11 01:35:18;;;;;;;63.07;28.07;;;-8.00;1.00;;;;;;5036243;28;20294;-78
2024/01/11 01:37:45;;;;;;;75.47;34.30;;;-8.00;1.00;;;;;;5036149;28;20222;-78
2024/01/11 01:40:12;;;;;;;69.83;35.30;;;-8.00;1.00;;;;;;5031335;28;20230;-79
2024/01/11 01:42:43;;;;;;;66.23;29.43;;;-8.10;1.00;;;;;;5033339;28;20203;-79
2024/01/11 01:45:10;;;;;;;66.67;33.00;;;-8.00;1.00;;;;;;5033718;28;20745;-78
2024/01/11 01:47:40;;;;;;;62.03;31.83;;;-8.10;1.00;;;;;;5034930;28;20570;-79
2024/01/11 01:50:08;;;;;;;65.53;29.07;;;-8.40;99.90;;;;;;5033957;28;20218;-78
2024/01/11 01:52:37;;;;;;;71.97;30.87;;;-8.30;1.00;;;;;;5033494;28;20210;-79
2024/01/11 01:55:06;;;;;;;60.70;27.53;;;-8.30;1.00;;;;;;5034026;28;20274;-79
2024/01/11 01:57:35;;;;;;;63.13;32.00;;;-8.40;99.90;;;;;;5037753;28;20601;-79
2024/01/11 02:00:03;;;;;;;66.50;29.50;;;-8.50;1.00;;;;;;5037245;28;20654;-77
2024/01/11 02:02:34;;;;;;;65.90;27.37;;;-7.70;1.00;;;;;;5031187;28;20207;-77
2024/01/11 02:05:03;;;;;;;64.77;28.67;;;-8.50;1.00;;;;;;5036757;28;20318;-77
2024/01/11 02:07:29;;;;;;;61.60;29.37;;;-8.50;1.00;;;;;;5035521;28;20207;-77
2024/01/11 02:09:57;;;;;;;67.17;28.30;;;-8.40;1.00;;;;;;5034568;28;20203;-77
2024/01/11 02:12:26;;;;;;;74.87;35.07;;;-8.40;1.00;;;;;;5035751;28;20219;-78
2024/01/11 02:14:54;;;;;;;64.23;34.20;;;-8.30;1.00;;;;;;5031876;28;20223;-78
2024/01/11 02:17:21;;;;;;;60.67;29.33;;;-8.30;1.00;;;;;;5030557;28;20641;-76
2024/01/11 02:19:48;;;;;;;58.43;27.07;;;-8.30;1.00;;;;;;5035875;28;20680;-77
2024/01/11 02:22:24;;;;;;;66.30;29.07;;;-8.30;1.00;;;;;;5030837;28;20203;-77
2024/01/11 02:24:53;;;;;;;70.73;32.97;;;-8.30;1.00;;;;;;5029752;28;20227;-76
2024/01/11 02:27:19;;;;;;;64.03;33.07;;;-8.10;1.00;;;;;;5030293;28;20300;-77
2024/01/11 02:29:46;;;;;;;72.87;36.77;;;-8.20;1.00;;;;;;5033397;28;20210;-77
2024/01/11 02:32:13;;;;;;;62.13;29.33;;;-8.10;1.00;;;;;;5030466;28;20200;-77
2024/01/11 02:34:40;;;;;;;67.03;32.93;;;-8.20;1.00;;;;;;5030312;28;20219;-77
2024/01/11 02:37:08;;;;;;;74.77;31.00;;;-8.30;1.00;;;;;;5030311;28;20731;-76
2024/01/11 02:39:35;;;;;;;65.97;29.77;;;-8.20;1.00;;;;;;5030748;28;20215;-77
2024/01/11 02:42:03;;;;;;;64.97;31.43;;;-8.20;1.00;;;;;;5030827;28;20306;-77
2024/01/11 02:44:30;;;;;;;63.87;28.43;;;-8.20;1.00;;;;;;5029357;28;20216;-77
2024/01/11 02:46:57;;;;;;;67.27;29.23;;;-8.10;1.00;;;;;;5029722;28;20207;-77
2024/01/11 02:49:23;;;;;;;74.63;33.27;;;-8.00;1.00;;;;;;5034292;28;20261;-77
2024/01/11 02:51:50;;;;;;;70.73;34.23;;;-8.00;1.00;;;;;;5030576;28;20564;-77
2024/01/11 02:54:17;;;;;;;66.80;28.73;;;-8.00;1.00;;;;;;5031685;28;20227;-76
2024/01/11 02:56:44;;;;;;;67.00;32.53;;;-8.20;1.00;;;;;;5030430;28;20200;-77
2024/01/11 02:59:12;;;;;;;69.27;33.30;;;-8.20;1.00;;;;;;5029841;28;20258;-77
2024/01/11 03:01:39;;;;;;;68.60;31.00;;;-8.20;1.00;;;;;;5031362;28;20208;-77
2024/01/11 03:04:06;;;;;;;65.57;28.53;;;-8.20;1.00;;;;;;5031312;28;20227;-77
2024/01/11 03:06:33;;;;;;;70.83;28.90;;;-8.10;1.00;;;;;;5030088;28;20212;-78
2024/01/11 03:09:00;;;;;;;72.80;34.17;;;-8.10;1.00;;;;;;5032608;28;20199;-78
2024/01/11 03:11:27;;;;;;;63.67;27.57;;;-8.10;1.00;;;;;;5034313;28;20214;-78
2024/01/11 03:13:53;;;;;;;60.27;30.43;;;-8.00;1.00;;;;;;5039673;28;20219;-77
2024/01/11 03:16:21;;;;;;;66.47;31.07;;;-8.20;1.00;;;;;;5035043;28;20225;-77
2024/01/11 03:18:48;;;;;;;68.40;32.83;;;-8.30;99.90;;;;;;5034067;28;20702;-77
2024/01/11 03:21:15;;;;;;;70.47;29.13;;;-8.50;99.90;;;;;;5034405;28;20578;-77
2024/01/11 03:23:42;;;;;;;60.23;27.77;;;-8.20;1.00;;;;;;5033323;28;20220;-77
2024/01/11 03:26:14;;;;;;;69.33;27.83;;;-8.30;1.00;;;;;;5034335;28;20597;-77
2024/01/11 03:28:40;;;;;;;62.03;29.47;;;-8.60;41.80;;;;;;5035708;28;20548;-77
2024/01/11 03:31:08;;;;;;;62.27;27.30;;;-8.80;1.00;;;;;;5037910;28;20780;-77
2024/01/11 03:33:37;;;;;;;69.83;32.30;;;-8.70;20.00;;;;;;5034561;28;20215;-77
2024/01/11 03:36:08;;;;;;;74.23;31.30;;;-8.40;99.90;;;;;;5034029;28;20209;-77
2024/01/11 03:38:35;;;;;;;74.30;35.40;;;-8.10;1.00;;;;;;5033138;28;20219;-78
2024/01/11 03:41:02;;;;;;;66.63;31.97;;;-8.10;1.00;;;;;;5034590;28;20241;-77
2024/01/11 03:43:29;;;;;;;71.70;36.70;;;-8.10;1.00;;;;;;5029305;28;20595;-77
2024/01/11 03:45:56;;;;;;;72.47;35.00;;;-8.20;1.00;;;;;;5033932;28;20200;-78
2024/01/11 03:48:23;;;;;;;63.10;28.57;;;-8.20;1.00;;;;;;5034844;28;20196;-78
2024/01/11 03:50:51;;;;;;;72.60;34.57;;;-8.10;1.00;;;;;;5037620;28;20242;-78
2024/01/11 03:53:18;;;;;;;64.37;28.17;;;-8.20;99.90;;;;;;5035988;28;20228;-78
2024/01/11 03:55:45;;;;;;;66.90;29.17;;;-8.30;99.90;;;;;;5035023;28;20203;-77
2024/01/11 03:58:11;;;;;;;68.27;29.80;;;-8.40;99.90;;;;;;5033855;28;20219;-77
2024/01/11 04:00:38;;;;;;;66.70;34.90;;;-8.50;99.90;;;;;;5034992;28;20206;-77
2024/01/11 04:03:07;;;;;;;70.23;33.27;;;-8.50;99.90;;;;;;5033845;28;20208;-76
2024/01/11 04:05:33;;;;;;;64.53;28.50;;;-8.40;1.00;;;;;;5033215;28;21632;-77
2024/01/11 04:08:04;;;;;;;67.77;29.23;;;-8.30;1.00;;;;;;5034018;28;20203;-77
2024/01/11 04:10:31;;;;;;;68.30;28.00;;;-8.40;1.00;;;;;;5032974;28;20821;-76
2024/01/11 04:12:58;;;;;;;57.70;26.83;;;-8.30;1.00;;;;;;5033998;28;20582;-77
2024/01/11 04:15:25;;;;;;;72.47;33.80;;;-8.40;1.00;;;;;;5032443;28;20564;-77
2024/01/11 04:17:51;;;;;;;72.47;33.60;;;-8.20;1.00;;;;;;5037804;28;20200;-77
2024/01/11 04:20:19;;;;;;;75.03;34.67;;;-8.00;1.00;;;;;;5031983;28;20564;-79
2024/01/11 04:22:45;;;;;;;64.17;33.03;;;-8.20;1.00;;;;;;5032454;28;20207;-76
2024/01/11 04:25:14;;;;;;;66.20;28.43;;;-8.20;1.00;;;;;;5033469;28;20592;-79
2024/01/11 04:27:41;;;;;;;63.23;28.07;;;-8.10;1.00;;;;;;5033068;28;20196;-77
2024/01/11 04:30:08;;;;;;;65.63;33.17;;;-8.20;1.00;;;;;;5033506;28;20666;-77
2024/01/11 04:32:35;;;;;;;62.63;28.50;;;-8.20;1.00;;;;;;5031220;28;20200;-77
2024/01/11 04:35:02;;;;;;;65.40;32.83;;;-8.50;1.00;;;;;;5033224;28;20215;-78
2024/01/11 04:37:29;;;;;;;62.20;32.10;;;-8.30;1.00;;;;;;5032445;28;20234;-77
2024/01/11 04:39:59;;;;;;;60.10;26.97;;;-8.30;1.00;;;;;;5031754;28;20228;-78
2024/01/11 04:42:27;;;;;;;54.93;25.63;;;-8.30;1.00;;;;;;5033010;28;20204;-78
2024/01/11 04:44:54;;;;;;;56.50;25.83;;;-8.30;1.00;;;;;;5032171;28;20226;-78
2024/01/11 04:47:21;;;;;;;54.97;25.40;;;-8.00;35.50;;;;;;5033089;28;20199;-77
2024/01/11 04:49:48;;;;;;;62.77;29.93;;;-7.90;99.90;;;;;;5039370;28;20195;-78
2024/01/11 04:52:15;;;;;;;67.23;31.60;;;-8.00;24.20;;;;;;5037831;28;20211;-78
2024/01/11 04:54:41;;;;;;;69.00;33.40;;;-8.20;1.00;;;;;;5035068;28;20572;-78
2024/01/11 04:57:08;;;;;;;54.80;26.10;;;-8.20;1.00;;;;;;5031471;28;20556;-77
2024/01/11 04:59:36;;;;;;;70.67;27.60;;;-8.20;1.00;;;;;;5034229;28;20592;-77
2024/01/11 05:02:03;;;;;;;60.20;28.17;;;-8.00;99.90;;;;;;5032620;28;20265;-76
2024/01/11 05:04:30;;;;;;;62.70;27.67;;;-8.20;32.70;;;;;;5032342;28;20227;-77
2024/01/11 05:06:57;;;;;;;55.47;26.87;;;-8.30;1.00;;;;;;5027835;28;20239;-76
2024/01/11 05:09:23;;;;;;;60.93;27.67;;;-8.20;99.90;;;;;;5032678;28;20234;-77
2024/01/11 05:11:50;;;;;;;60.10;29.43;;;-8.40;1.00;;;;;;5032660;28;20199;-77
2024/01/11 05:14:17;;;;;;;58.90;27.30;;;-8.40;1.00;;;;;;5031942;28;20219;-76
2024/01/11 05:16:45;;;;;;;58.87;27.03;;;-8.30;99.90;;;;;;5031550;28;20211;-78
2024/01/11 05:19:12;;;;;;;66.07;30.73;;;-8.30;99.90;;;;;;5039597;28;20222;-77
2024/01/11 05:21:39;;;;;;;57.00;28.57;;;-8.40;1.00;;;;;;5032273;28;20579;-77
2024/01/11 05:24:06;;;;;;;59.23;25.67;;;-8.40;1.00;;;;;;5032090;28;20281;-77
2024/01/11 05:26:33;;;;;;;57.03;26.20;;;-8.40;1.00;;;;;;5031858;28;20202;-78
2024/01/11 05:29:00;;;;;;;56.43;26.27;;;-8.30;47.50;;;;;;5032322;28;20195;-78
2024/01/11 05:31:26;;;;;;;62.73;25.20;;;-8.30;42.00;;;;;;5033986;28;20211;-77
2024/01/11 05:33:54;;;;;;;58.07;26.40;;;-8.30;15.70;;;;;;5033246;28;20241;-77
2024/01/11 05:36:21;;;;;;;56.47;26.40;;;-8.20;99.90;;;;;;5033472;28;20200;-77
2024/01/11 05:38:48;;;;;;;61.43;27.73;;;-8.00;99.90;;;;;;5032608;28;20601;-77
2024/01/11 05:41:15;;;;;;;61.13;28.27;;;-8.10;99.90;;;;;;5031880;28;20203;-76
2024/01/11 05:43:42;;;;;;;60.23;31.10;;;-8.00;99.90;;;;;;5032152;28;20225;-78
2024/01/11 05:46:09;;;;;;;57.03;26.10;;;-7.90;99.90;;;;;;5031435;28;20212;-76
2024/01/11 05:48:36;;;;;;;57.17;29.17;;;-7.80;99.90;;;;;;5031415;28;20670;-77
2024/01/11 05:51:04;;;;;;;53.23;25.13;;;-7.70;99.90;;;;;;5037956;28;20204;-76
2024/01/11 05:53:35;;;;;;;53.47;24.63;;;-7.70;99.90;;;;;;5035400;28;20241;-77
2024/01/11 05:56:01;;;;;;;57.77;24.73;;;-8.00;1.00;;;;;;5028363;28;20611;-77
2024/01/11 05:58:29;;;;;;;51.47;23.77;;;-8.00;22.80;;;;;;5034147;28;20227;-76
2024/01/11 06:00:56;;;;;;;53.83;24.97;;;-7.90;99.90;;;;;;5033217;28;20204;-76
2024/01/11 06:03:23;;;;;;;50.17;24.73;;;-7.90;99.90;;;;;;5033078;28;20223;-77
2024/01/11 06:05:50;;;;;;;49.20;23.77;;;-8.20;1.00;;;;;;5032824;28;20206;-77
2024/01/11 06:08:18;;;;;;;50.33;21.90;;;-8.10;1.00;;;;;;5030848;28;20203;-78
2024/01/11 06:10:45;;;;;;;59.13;24.37;;;-8.20;1.00;;;;;;5032733;28;20196;-77
2024/01/11 06:13:12;;;;;;;56.30;27.50;;;-8.20;1.00;;;;;;5031996;28;20231;-77
2024/01/11 06:15:38;;;;;;;54.90;27.70;;;-7.90;99.90;;;;;;5031602;28;20207;-77
2024/01/11 06:18:05;;;;;;;51.60;26.53;;;-7.80;99.90;;;;;;5031385;28;20203;-77
2024/01/11 06:20:32;;;;;;;56.07;23.13;;;-7.80;99.90;;;;;;5030422;28;20479;-77
2024/01/11 06:22:59;;;;;;;60.97;26.00;;;-7.80;99.90;;;;;;5040431;28;20203;-77
2024/01/11 06:25:27;;;;;;;64.70;28.27;;;-7.90;99.90;;;;;;5031801;28;20207;-77
2024/01/11 06:27:54;;;;;;;67.53;28.80;;;-7.70;1.00;;;;;;5031385;28;20656;-77
2024/01/11 06:30:20;;;;;;;71.47;31.50;;;-7.60;1.00;;;;;;5031293;28;20223;-77
2024/01/11 06:32:47;;;;;;;62.33;27.57;;;-7.50;1.00;;;;;;5030484;28;20689;-77
2024/01/11 06:35:14;;;;;;;63.30;26.87;;;-7.40;1.00;;;;;;5030943;28;20230;-77
2024/01/11 06:37:41;;;;;;;63.40;30.17;;;-7.30;1.00;;;;;;5031139;28;20206;-77
2024/01/11 06:40:09;;;;;;;66.40;32.00;;;-7.30;1.00;;;;;;5032092;28;20224;-77
2024/01/11 06:42:37;;;;;;;62.93;27.03;;;-7.40;1.00;;;;;;5031083;28;20673;-77
2024/01/11 06:45:04;;;;;;;61.33;27.00;;;-7.50;1.00;;;;;;5034149;28;20219;-78
2024/01/11 06:47:31;;;;;;;60.67;28.53;;;-7.40;1.00;;;;;;5030559;28;20200;-77
2024/01/11 06:49:57;;;;;;;53.77;25.63;;;-7.40;1.00;;;;;;5042513;28;20690;-78
2024/01/11 06:52:25;;;;;;;54.03;25.73;;;-7.30;1.00;;;;;;5042547;28;20207;-76
2024/01/11 06:54:51;;;;;;;55.47;24.73;;;-7.40;1.00;;;;;;5035035;28;20706;-77
2024/01/11 06:57:18;;;;;;;60.00;25.57;;;-7.40;1.00;;;;;;5034703;28;20567;-78
2024/01/11 06:59:47;;;;;;;67.07;30.67;;;-7.40;1.00;;;;;;5037460;28;20219;-78
2024/01/11 07:02:14;;;;;;;56.37;23.70;;;-7.30;1.00;;;;;;5035063;28;20290;-78
2024/01/11 07:04:45;;;;;;;60.83;28.53;;;-7.30;1.00;;;;;;5037474;28;20223;-78
2024/01/11 07:07:12;;;;;;;60.10;26.33;;;-7.30;1.00;;;;;;5036433;28;20669;-78
2024/01/11 07:09:39;;;;;;;54.13;24.47;;;-7.30;1.00;;;;;;5035302;28;20204;-78
2024/01/11 07:12:06;;;;;;;64.83;24.93;;;-7.30;1.00;;;;;;5035554;28;20569;-78
2024/01/11 07:14:33;;;;;;;57.07;29.87;;;-7.20;1.00;;;;;;5035179;28;20219;-77
2024/01/11 07:17:02;;;;;;;55.87;25.67;;;-7.20;1.00;;;;;;5034449;28;20203;-77
2024/01/11 07:19:28;;;;;;;51.83;23.33;;;-7.30;1.00;;;;;;5034153;28;20219;-78
2024/01/11 07:21:55;;;;;;;50.87;23.33;;;-7.30;1.00;;;;;;5038656;28;20222;-78
2024/01/11 07:24:22;;;;;;;50.67;23.93;;;-7.20;1.00;;;;;;5033937;28;20216;-77
2024/01/11 07:26:49;;;;;;;57.07;26.97;;;-7.20;1.00;;;;;;5037054;28;20594;-77
2024/01/11 07:29:15;;;;;;;56.23;24.97;;;-7.20;1.00;;;;;;5033015;28;20214;-77
2024/01/11 07:31:42;;;;;;;58.33;29.60;;;-7.30;1.00;;;;;;5038500;28;20567;-77
2024/01/11 07:34:10;;;;;;;55.07;24.33;;;-7.30;1.00;;;;;;5031751;28;20626;-77
2024/01/11 07:36:38;;;;;;;57.17;24.77;;;-7.30;1.00;;;;;;5031548;28;20650;-77
2024/01/11 07:39:04;;;;;;;53.13;23.20;;;-7.30;1.00;;;;;;5034913;28;20785;-77
2024/01/11 07:41:32;;;;;;;55.30;28.93;;;-7.30;1.00;;;;;;5039925;28;20203;-77
2024/01/11 07:43:59;;;;;;;60.10;29.07;;;-7.30;1.00;;;;;;5030783;28;20231;-78
2024/01/11 07:46:26;;;;;;;48.70;23.03;;;-7.30;1.00;;;;;;5030299;28;20207;-77
2024/01/11 07:48:53;;;;;;;49.87;22.90;;;-7.50;1.00;;;;;;5035399;28;20204;-78
2024/01/11 07:51:21;;;;;;;52.10;23.63;;;-7.30;1.00;;;;;;5031413;28;20219;-78
2024/01/11 07:53:48;;;;;;;54.13;24.03;;;-7.20;1.00;;;;;;5030945;28;20229;-77
2024/01/11 07:56:15;;;;;;;49.00;25.63;;;-7.20;1.00;;;;;;5042758;28;20294;-77
2024/01/11 07:58:41;;;;;;;46.30;24.30;;;-7.10;1.00;;;;;;5040991;28;20568;-77
2024/01/11 08:01:09;;;;;;;54.27;28.07;;;-7.10;1.00;;;;;;5035631;28;20222;-78
2024/01/11 08:03:36;;;;;;;47.97;21.47;;;-7.00;1.00;;;;;;5036825;28;20227;-76
2024/01/11 08:06:03;;;;;;;47.70;22.13;;;-6.90;1.00;;;;;;5040229;28;20195;-77
2024/01/11 08:08:32;;;;;;;50.17;20.73;;;-6.80;1.00;;;;;;5033103;28;20697;-76
2024/01/11 08:10:58;;;;;;;47.70;21.33;;;-6.70;1.00;;;;;;5039744;28;20199;-77
2024/01/11 08:13:25;;;;;;;48.37;19.57;;;-6.70;1.00;;;;;;5039694;28;20227;-76
2024/01/11 08:15:53;;;;;;;45.13;18.30;;;-6.60;1.00;;;;;;5037498;28;20214;-76
2024/01/11 08:18:20;;;;;;;47.43;20.23;;;-6.60;1.00;;;;;;5038345;28;20203;-76
2024/01/11 08:20:48;;;;;;;47.37;23.07;;;-6.30;1.00;;;;;;5034334;28;20310;-76
2024/01/11 08:23:15;;;;;;;40.37;17.93;;;-6.10;99.90;;;;;;5035499;28;20255;-77
2024/01/11 08:25:43;;;;;;;45.13;21.00;;;-5.80;1.00;;;;;;5032469;28;20204;-77
2024/01/11 08:28:10;;;;;;;46.57;21.53;;;-5.40;99.90;;;;;;5038197;28;20195;-76
2024/01/11 08:30:36;;;;;;;45.43;20.13;;;-5.10;19.80;;;;;;5033203;28;20195;-77
2024/01/11 08:33:04;;;;;;;44.83;19.47;;;-5.50;1.00;;;;;;5040045;28;20596;-77
2024/01/11 08:35:32;;;;;;;45.33;20.40;;;-5.30;28.50;;;;;;5031265;28;20286;-77
2024/01/11 08:37:58;;;;;;;47.37;20.40;;;-5.20;1.00;;;;;;5034880;28;20203;-77
2024/01/11 08:40:25;;;;;;;42.13;19.80;;;-5.30;1.00;;;;;;5033428;28;20238;-76
2024/01/11 08:42:54;;;;;;;41.23;18.47;;;-5.20;1.00;;;;;;5033995;28;20258;-76
2024/01/11 08:45:22;;;;;;;41.20;20.70;;;-4.80;1.00;;;;;;5033342;28;20222;-77
2024/01/11 08:47:49;;;;;;;42.13;18.70;;;-4.30;1.00;;;;;;5033780;28;20710;-77
2024/01/11 08:50:17;;;;;;;39.93;18.57;;;-4.40;99.90;;;;;;5035581;28;20692;-76
2024/01/11 08:52:44;;;;;;;40.30;17.10;;;-4.60;1.00;;;;;;5033065;28;20600;-77
2024/01/11 08:55:12;;;;;;;36.97;18.20;;;-4.80;1.00;;;;;;5039594;28;20597;-77
2024/01/11 08:57:39;;;;;;;38.50;17.90;;;-4.70;1.00;;;;;;5035855;28;20634;-77
2024/01/11 09:00:08;;;;;;;41.37;18.83;;;-5.00;1.00;;;;;;5039197;28;20354;-77
2024/01/11 09:02:35;;;;;;;37.93;17.03;;;-5.00;1.00;;;;;;5032222;28;20207;-76
2024/01/11 09:05:02;;;;;;;40.47;19.13;;;-4.60;1.00;;;;;;5031350;28;20224;-76
2024/01/11 09:07:28;;;;;;;37.53;17.60;;;-4.70;1.00;;;;;;5035919;28;20207;-76
2024/01/11 09:09:55;;;;;;;34.83;15.93;;;-4.60;1.00;;;;;;5033987;28;20290;-77
2024/01/11 09:12:22;;;;;;;34.73;18.17;;;-4.30;1.00;;;;;;5035170;28;20294;-78
2024/01/11 09:14:49;;;;;;;39.30;18.23;;;-4.00;99.90;;;;;;5032715;28;20223;-76
2024/01/11 09:17:17;;;;;;;34.43;16.70;;;-4.40;99.90;;;;;;5031886;28;20216;-77
2024/01/11 09:19:44;;;;;;;33.43;15.80;;;-4.50;99.90;;;;;;5031586;28;20231;-78
2024/01/11 09:22:11;;;;;;;33.67;17.57;;;-4.70;1.00;;;;;;5035859;28;20210;-77
2024/01/11 09:24:38;;;;;;;38.53;17.73;;;-4.70;1.00;;;;;;5031786;28;20216;-77
2024/01/11 09:27:05;;;;;;;37.57;16.63;;;-4.10;1.00;;;;;;5036823;28;20210;-76
2024/01/11 09:29:31;;;;;;;38.23;17.63;;;-4.20;1.00;;;;;;5038673;28;20200;-77
2024/01/11 09:31:59;;;;;;;36.37;18.07;;;-3.70;99.90;;;;;;5040091;28;20210;-77
2024/01/11 09:34:27;;;;;;;33.57;16.80;;;-3.50;99.90;;;;;;5038519;28;20226;-77
2024/01/11 09:36:58;;;;;;;34.43;16.77;;;-3.40;45.90;;;;;;5032791;28;20202;-77
2024/01/11 09:39:25;;;;;;;35.43;16.83;;;-3.90;99.90;;;;;;5035653;28;20211;-77
2024/01/11 09:41:58;;;;;;;40.67;17.97;;;-4.20;99.90;;;;;;5034011;28;20291;-77
2024/01/11 09:44:26;;;;;;;36.70;17.07;;;-4.10;99.90;;;;;;5034491;28;20285;-76
2024/01/11 09:46:54;;;;;;;35.40;16.70;;;-3.60;99.90;;;;;;5032371;28;20214;-77
2024/01/11 09:49:23;;;;;;;32.90;14.70;;;-4.10;1.00;;;;;;5030819;28;20204;-76
2024/01/11 09:51:52;;;;;;;35.90;15.63;;;-4.20;1.00;;;;;;5031818;28;20251;-76
2024/01/11 09:54:21;;;;;;;32.37;14.30;;;-4.20;1.00;;;;;;5035553;28;20229;-77
2024/01/11 09:56:51;;;;;;;30.97;13.27;;;-4.10;8.80;;;;;;5030802;28;20204;-76
2024/01/11 09:59:22;;;;;;;36.00;14.07;;;-4.10;99.90;;;;;;5032097;28;20290;-77
2024/01/11 10:01:49;;;;;;;33.47;13.33;;;-4.10;99.90;;;;;;5038014;28;20215;-76
2024/01/11 10:04:16;;;;;;;29.40;13.57;;;-4.10;1.00;;;;;;5032129;28;20609;-76
2024/01/11 10:06:43;;;;;;;32.97;14.27;;;-4.10;1.00;;;;;;5027344;28;20207;-76
2024/01/11 10:09:12;;;;;;;34.77;13.57;;;-4.10;99.90;;;;;;5036025;28;20206;-77
2024/01/11 10:11:39;;;;;;;37.67;14.47;;;-4.00;99.90;;;;;;5033977;28;20207;-78
2024/01/11 10:14:06;;;;;;;28.77;12.80;;;-3.90;1.00;;;;;;5033764;28;20235;-77
2024/01/11 10:16:33;;;;;;;36.67;15.73;;;-3.90;99.90;;;;;;5030716;28;20212;-77
2024/01/11 10:19:00;;;;;;;32.33;13.53;;;-3.80;1.00;;;;;;5031433;28;20688;-78
2024/01/11 10:21:28;;;;;;;35.77;14.83;;;-3.80;1.00;;;;;;5032478;28;20600;-78
2024/01/11 10:23:55;;;;;;;33.40;14.97;;;-3.90;99.90;;;;;;5035611;28;20231;-78
2024/01/11 10:26:23;;;;;;;35.07;14.50;;;-3.80;1.00;;;;;;5036764;28;20677;-77
2024/01/11 10:28:50;;;;;;;33.37;13.57;;;-3.80;1.00;;;;;;5031540;28;20569;-77
2024/01/11 10:31:17;;;;;;;41.33;15.53;;;-3.80;99.90;;;;;;5037239;28;20661;-78
2024/01/11 10:33:46;;;;;;;39.70;14.90;;;-3.70;1.00;;;;;;5035370;28;20590;-78
2024/01/11 10:36:13;;;;;;;43.77;16.13;;;-3.80;1.00;;;;;;5031482;28;20203;-77
2024/01/11 10:38:40;;;;;;;29.90;12.80;;;-3.70;99.90;;;;;;5031738;28;20578;-77
2024/01/11 10:41:08;;;;;;;34.63;14.10;;;-3.70;1.00;;;;;;5033011;28;20230;-77
2024/01/11 10:43:38;;;;;;;34.27;14.53;;;-3.60;1.00;;;;;;5030929;28;20234;-76
2024/01/11 10:46:07;;;;;;;34.47;13.83;;;-3.50;1.00;;;;;;5031166;28;20610;-78
2024/01/11 10:48:39;;;;;;;31.97;12.87;;;-3.50;1.00;;;;;;5032072;28;20214;-78
2024/01/11 10:51:09;;;;;;;28.17;11.00;;;-3.50;1.00;;;;;;5031583;28;20682;-76
2024/01/11 10:53:42;;;;;;;30.57;10.77;;;-3.50;1.00;;;;;;5033583;28;20260;-78
2024/01/11 10:56:11;;;;;;;27.73;11.73;;;-3.50;1.00;;;;;;5032802;28;20204;-77
2024/01/11 10:58:41;;;;;;;29.23;11.00;;;-3.40;1.00;;;;;;5038324;28;20206;-77
2024/01/11 11:01:10;;;;;;;28.47;10.87;;;-3.40;27.10;;;;;;5033463;28;20218;-77
2024/01/11 11:03:38;;;;;;;24.77;11.03;;;-3.30;99.90;;;;;;5029622;28;20230;-77
2024/01/11 11:06:06;;;;;;;28.87;10.53;;;-3.30;99.90;;;;;;5031907;28;20210;-78
2024/01/11 11:08:34;;;;;;;25.73;10.87;;;-3.30;99.90;;;;;;5031394;28;20214;-78
2024/01/11 11:11:05;;;;;;;28.40;11.60;;;-3.20;99.90;;;;;;5039174;28;20657;-77
2024/01/11 11:13:33;;;;;;;28.57;11.40;;;-3.20;99.90;;;;;;5032421;28;20310;-78
2024/01/11 11:16:03;;;;;;;29.20;11.07;;;-3.20;99.90;;;;;;5030405;28;20850;-78
2024/01/11 11:18:30;;;;;;;34.03;12.73;;;-3.10;99.90;;;;;;5032724;28;20250;-77
2024/01/11 11:20:58;;;;;;;33.23;12.70;;;-3.00;99.90;;;;;;5032126;28;20219;-77
2024/01/11 11:23:25;;;;;;;23.87;10.67;;;-2.90;99.90;;;;;;5031589;28;20219;-77
2024/01/11 11:25:55;;;;;;;28.07;11.90;;;-2.80;99.90;;;;;;5030485;28;20204;-78
2024/01/11 11:28:22;;;;;;;25.77;10.53;;;-2.70;99.90;;;;;;5030760;28;20539;-78
2024/01/11 11:30:51;;;;;;;26.90;12.53;;;-2.70;99.90;;;;;;5037870;28;20668;-78
2024/01/11 11:33:21;;;;;;;27.50;11.83;;;-2.50;99.90;;;;;;5036676;28;20227;-77
2024/01/11 11:35:48;;;;;;;31.47;13.73;;;-2.50;99.90;;;;;;5038050;28;20199;-78
2024/01/11 11:38:19;;;;;;;31.27;12.83;;;-2.50;99.90;;;;;;5032863;28;20206;-77
2024/01/11 11:40:48;;;;;;;32.00;12.70;;;-2.40;99.90;;;;;;5034124;28;20432;-78
2024/01/11 11:43:17;;;;;;;28.67;12.80;;;-2.40;99.90;;;;;;5033447;28;20261;-78
2024/01/11 11:45:46;;;;;;;31.33;14.77;;;-2.40;99.90;;;;;;5034180;28;20655;-77
2024/01/11 11:48:54;;;;;;;32.60;15.80;;;-2.30;99.90;;;;;;5036630;28;20207;-78
2024/01/11 11:51:21;;;;;;;31.27;14.30;;;-2.30;90.70;;;;;;5040616;28;20284;-77
2024/01/11 11:53:49;;;;;;;34.37;14.47;;;-2.30;1.00;;;;;;5036416;28;20224;-77
2024/01/11 11:56:18;;;;;;;30.77;14.37;;;-2.30;1.00;;;;;;5033580;28;20196;-77
2024/01/11 11:58:46;;;;;;;37.33;17.40;;;-2.20;1.00;;;;;;5033413;28;20253;-78
2024/01/11 12:01:15;;;;;;;38.90;18.10;;;-2.20;99.40;;;;;;5039193;28;20226;-78
2024/01/11 12:03:48;;;;;;;38.03;17.00;;;-2.20;99.90;;;;;;5043665;28;20222;-77
2024/01/11 12:06:17;;;;;;;32.80;16.50;;;-2.10;99.90;;;;;;5042704;28;20287;-77
2024/01/11 12:08:45;;;;;;;37.70;17.20;;;-2.00;99.90;;;;;;5034576;28;20732;-77
2024/01/11 12:11:15;;;;;;;40.63;18.10;;;-2.00;99.90;;;;;;5034337;28;20917;-78
2024/01/11 12:13:44;;;;;;;33.27;15.43;;;-2.00;99.90;;;;;;5034891;28;20227;-78
2024/01/11 12:16:11;;;;;;;34.77;17.30;;;-2.00;99.90;;;;;;5038444;28;20303;-77
2024/01/11 12:18:38;;;;;;;39.73;17.47;;;-2.00;99.90;;;;;;5036399;28;20196;-78
2024/01/11 12:21:05;;;;;;;36.30;17.63;;;-2.10;99.90;;;;;;5042390;28;20229;-78
2024/01/11 12:23:34;;;;;;;37.97;18.37;;;-2.00;99.90;;;;;;5035692;28;20225;-79
2024/01/11 12:26:05;;;;;;;35.37;16.47;;;-2.00;99.90;;;;;;5031394;28;20208;-78
2024/01/11 12:28:32;;;;;;;38.83;17.40;;;-2.00;99.90;;;;;;5034755;28;20200;-78
2024/01/11 12:30:59;;;;;;;40.63;16.93;;;-2.00;99.90;;;;;;5038115;28;20659;-78
2024/01/11 12:33:27;;;;;;;40.13;18.03;;;-2.00;99.90;;;;;;5032089;28;20224;-77
2024/01/11 12:35:54;;;;;;;40.43;18.73;;;-2.00;99.90;;;;;;5034744;28;20206;-78